createdAt,value
2023-03-16T00:00:18.636Z,101269.41
2023-03-16T00:03:03.926Z,101273.91
2023-03-16T00:05:51.185Z,101272.81
2023-03-16T00:08:36.755Z,101277.25
2023-03-16T00:11:22.006Z,101271.97
2023-03-16T00:14:07.242Z,101270.00
2023-03-16T00:16:52.739Z,101272.72
2023-03-16T00:19:38.123Z,101270.84
2023-03-16T00:22:29.063Z,101276.78
2023-03-16T00:25:15.209Z,101275.72
2023-03-16T00:28:00.839Z,101274.16
2023-03-16T00:30:46.663Z,101274.72
2023-03-16T00:33:32.337Z,101274.97
2023-03-16T00:36:17.776Z,101270.84
2023-03-16T00:39:02.551Z,101268.41
2023-03-16T00:41:48.074Z,101273.28
2023-03-16T00:44:33.292Z,101269.56
2023-03-16T00:47:18.804Z,101268.75
2023-03-16T00:50:04.751Z,101272.44
2023-03-16T00:52:50.283Z,101271.22
2023-03-16T00:55:35.825Z,101256.44
2023-03-16T00:58:20.828Z,101258.44
2023-03-16T01:01:09.130Z,101252.53
2023-03-16T01:03:54.484Z,101255.16
2023-03-16T01:06:40.344Z,101251.13
2023-03-16T01:09:25.775Z,101241.22
2023-03-16T01:12:14.422Z,101236.31
2023-03-16T01:15:00.212Z,101233.00
2023-03-16T01:17:45.693Z,101241.28
2023-03-16T01:20:30.741Z,101244.88
2023-03-16T01:23:17.242Z,101244.63
2023-03-16T01:26:02.655Z,101239.41
2023-03-16T01:28:47.659Z,101241.28
2023-03-16T01:31:33.107Z,101244.03
2023-03-16T01:34:18.501Z,101248.13
2023-03-16T01:37:03.621Z,101245.38
2023-03-16T01:39:49.692Z,101244.16
2023-03-16T01:42:46.216Z,101229.31
2023-03-16T01:46:13.858Z,101229.22
2023-03-16T01:49:19.597Z,101236.84
2023-03-16T01:52:08.470Z,101236.59
2023-03-16T01:55:05.800Z,101229.72
2023-03-16T01:57:50.761Z,101224.97
2023-03-16T02:00:35.516Z,101220.31
2023-03-16T02:03:21.295Z,101220.19
2023-03-16T02:06:12.312Z,101207.72
2023-03-16T02:08:58.485Z,101207.13
2023-03-16T02:11:43.610Z,101188.34
2023-03-16T02:14:28.971Z,101181.50
2023-03-16T02:17:16.099Z,101180.91
2023-03-16T02:20:27.627Z,101176.50
2023-03-16T02:23:16.610Z,101177.50
2023-03-16T02:26:23.789Z,101180.38
2023-03-16T02:29:46.358Z,101178.56
2023-03-16T02:32:32.722Z,101176.94
2023-03-16T02:35:18.262Z,101178.38
2023-03-16T02:38:03.822Z,101170.00
2023-03-16T02:40:58.264Z,101163.13
2023-03-16T02:44:09.352Z,101177.03
2023-03-16T02:47:03.134Z,101167.84
2023-03-16T02:49:48.102Z,101160.91
2023-03-16T02:52:35.003Z,101159.34
2023-03-16T02:55:20.770Z,101147.38
2023-03-16T02:58:05.781Z,101150.72
2023-03-16T03:00:50.955Z,101139.25
2023-03-16T03:03:36.226Z,101142.78
2023-03-16T03:06:21.581Z,101144.28
2023-03-16T03:09:08.819Z,101145.75
2023-03-16T03:11:53.603Z,101137.81
2023-03-16T03:14:39.445Z,101136.13
2023-03-16T03:17:25.170Z,101136.13
2023-03-16T03:20:12.402Z,101133.75
2023-03-16T03:22:57.741Z,101127.91
2023-03-16T03:25:43.084Z,101125.91
2023-03-16T03:28:28.677Z,101127.50
2023-03-16T03:31:19.702Z,101121.16
2023-03-16T03:34:04.910Z,101129.97
2023-03-16T03:36:50.718Z,101126.75
2023-03-16T03:39:36.293Z,101122.63
2023-03-16T03:42:21.792Z,101121.97
2023-03-16T03:45:08.201Z,101127.16
2023-03-16T03:47:53.228Z,101121.88
2023-03-16T03:50:38.605Z,101127.47
2023-03-16T03:53:23.975Z,101124.94
2023-03-16T03:56:09.227Z,101118.19
2023-03-16T03:58:54.695Z,101128.44
2023-03-16T04:01:39.951Z,101123.28
2023-03-16T04:04:25.472Z,101118.66
2023-03-16T04:07:11.357Z,101117.38
2023-03-16T04:09:56.800Z,101108.22
2023-03-16T04:12:42.193Z,101108.00
2023-03-16T04:15:27.816Z,101097.34
2023-03-16T04:18:13.081Z,101097.16
2023-03-16T04:20:58.235Z,101104.41
2023-03-16T04:23:44.319Z,101097.47
2023-03-16T04:26:29.314Z,101102.28
2023-03-16T04:29:16.098Z,101107.56
2023-03-16T04:32:01.364Z,101100.59
2023-03-16T04:34:46.666Z,101089.06
2023-03-16T04:37:31.995Z,101085.72
2023-03-16T04:40:17.433Z,101090.44
2023-03-16T04:43:02.536Z,101079.28
2023-03-16T04:45:47.779Z,101069.69
2023-03-16T04:48:33.008Z,101063.75
2023-03-16T04:51:18.174Z,101070.78
2023-03-16T04:54:04.177Z,101072.13
2023-03-16T04:56:49.341Z,101072.03
2023-03-16T04:59:34.332Z,101065.06
2023-03-16T05:02:19.928Z,101069.41
2023-03-16T05:05:05.686Z,101078.41
2023-03-16T05:07:50.874Z,101074.97
2023-03-16T05:10:36.048Z,101069.50
2023-03-16T05:13:21.278Z,101065.97
2023-03-16T05:16:07.171Z,101060.19
2023-03-16T05:18:52.733Z,101061.47
2023-03-16T05:21:38.042Z,101054.59
2023-03-16T05:24:23.439Z,101054.09
2023-03-16T05:27:08.467Z,101048.88
2023-03-16T05:29:53.625Z,101048.38
2023-03-16T05:32:38.628Z,101048.28
2023-03-16T05:35:24.373Z,101041.84
2023-03-16T05:38:09.824Z,101045.72
2023-03-16T05:40:55.314Z,101043.19
2023-03-16T05:43:40.580Z,101039.63
2023-03-16T05:46:25.595Z,101027.28
2023-03-16T05:49:10.540Z,101029.34
2023-03-16T05:51:56.011Z,101024.34
2023-03-16T05:54:41.600Z,101019.44
2023-03-16T05:57:26.638Z,101020.59
2023-03-16T06:00:14.449Z,101026.47
2023-03-16T06:03:00.137Z,101015.53
2023-03-16T06:05:45.773Z,101010.59
2023-03-16T06:08:30.865Z,101009.91
2023-03-16T06:11:16.832Z,101010.09
2023-03-16T06:14:02.206Z,101001.13
2023-03-16T06:16:47.249Z,100989.34
2023-03-16T06:19:32.581Z,100998.91
2023-03-16T06:22:17.929Z,101001.69
2023-03-16T06:25:03.314Z,100999.72
2023-03-16T06:27:48.763Z,100996.22
2023-03-16T06:30:34.208Z,100999.72
2023-03-16T06:33:19.712Z,100999.91
2023-03-16T06:36:04.763Z,101002.19
2023-03-16T06:38:49.870Z,101000.81
2023-03-16T06:41:34.864Z,100996.41
2023-03-16T06:44:20.152Z,100992.28
2023-03-16T06:47:05.792Z,100986.81
2023-03-16T06:49:51.006Z,100986.34
2023-03-16T06:52:36.111Z,100989.16
2023-03-16T06:55:21.354Z,100994.94
2023-03-16T06:58:07.285Z,100983.75
2023-03-16T07:00:52.796Z,100990.88
2023-03-16T07:03:38.649Z,100989.84
2023-03-16T07:06:24.292Z,100976.31
2023-03-16T07:09:09.789Z,100972.97
2023-03-16T07:11:55.128Z,100972.09
2023-03-16T07:14:40.349Z,100970.69
2023-03-16T07:17:25.954Z,100966.19
2023-03-16T07:20:12.254Z,100977.59
2023-03-16T07:22:57.464Z,100984.16
2023-03-16T07:25:42.869Z,100981.03
2023-03-16T07:28:27.837Z,100982.00
2023-03-16T07:31:13.805Z,100975.63
2023-03-16T07:33:59.258Z,100969.97
2023-03-16T07:36:44.663Z,100961.25
2023-03-16T07:39:30.162Z,100964.22
2023-03-16T07:42:15.566Z,100972.19
2023-03-16T07:45:01.404Z,100965.88
2023-03-16T07:47:46.494Z,100966.84
2023-03-16T07:50:31.881Z,100968.97
2023-03-16T07:53:17.700Z,100977.97
2023-03-16T07:56:02.878Z,100966.53
2023-03-16T07:58:48.226Z,100960.84
2023-03-16T08:04:10.685Z,100958.97
2023-03-16T08:06:55.732Z,100953.56
2023-03-16T08:09:41.693Z,100937.41
2023-03-16T08:12:27.076Z,100921.72
2023-03-16T08:15:12.474Z,100907.81
2023-03-16T08:18:01.431Z,100895.78
2023-03-16T08:20:47.317Z,100870.47
2023-03-16T08:23:32.714Z,100868.50
2023-03-16T08:26:19.853Z,100858.16
2023-03-16T08:29:05.189Z,100854.44
2023-03-16T08:31:52.568Z,100839.44
2023-03-16T08:34:38.058Z,100828.97
2023-03-16T08:37:23.363Z,100805.59
2023-03-16T08:40:10.435Z,100813.31
2023-03-16T08:42:55.846Z,100798.63
2023-03-16T08:51:49.610Z,100789.03
2023-03-16T08:54:34.809Z,100820.50
2023-03-16T08:57:19.834Z,100814.25
2023-03-16T09:00:06.402Z,100795.13
2023-03-16T09:02:51.554Z,100800.41
2023-03-16T09:05:36.998Z,100792.31
2023-03-16T09:08:22.412Z,100735.97
2023-03-16T09:11:10.616Z,100759.84
2023-03-16T09:13:56.045Z,100756.13
2023-03-16T09:16:41.444Z,100735.81
2023-03-16T09:19:28.021Z,100789.19
2023-03-16T09:22:15.771Z,100765.00
2023-03-16T09:25:01.258Z,100778.56
2023-03-16T09:27:46.529Z,100732.22
2023-03-16T09:30:32.096Z,100706.22
2023-03-16T09:33:17.590Z,100704.50
2023-03-16T09:36:03.063Z,100704.38
2023-03-16T09:38:48.390Z,100705.06
2023-03-16T09:41:55.174Z,100668.38
2023-03-16T09:44:59.512Z,100671.03
2023-03-16T09:47:48.276Z,100653.25
2023-03-16T09:50:48.424Z,100658.94
2023-03-16T09:53:38.444Z,100670.75
2023-03-16T09:56:51.850Z,100663.09
2023-03-16T09:59:37.283Z,100649.06
2023-03-16T10:02:46.764Z,100656.69
2023-03-16T10:05:34.093Z,100650.06
2023-03-16T10:08:45.729Z,100657.81
2023-03-16T10:11:36.556Z,100673.31
2023-03-16T10:14:43.496Z,100640.09
2023-03-16T10:17:41.256Z,100670.88
2023-03-16T10:20:31.283Z,100680.44
2023-03-16T10:23:22.836Z,100655.34
2023-03-16T10:26:21.587Z,100685.03
2023-03-16T10:29:12.087Z,100657.00
2023-03-16T10:32:11.565Z,100617.13
2023-03-16T10:35:02.214Z,100647.47
2023-03-16T10:37:47.603Z,100645.22
2023-03-16T10:40:37.873Z,100657.44
2023-03-16T10:43:23.928Z,100628.41
2023-03-16T10:46:10.813Z,100669.16
2023-03-16T10:49:00.087Z,100657.94
2023-03-16T10:51:45.825Z,100637.25
2023-03-16T10:54:47.622Z,100662.31
2023-03-16T10:57:35.746Z,100645.03
2023-03-16T11:00:26.339Z,100635.94
2023-03-16T11:03:38.388Z,100665.28
2023-03-16T11:06:32.631Z,100626.31
2023-03-16T11:09:26.846Z,100631.16
2023-03-16T11:12:25.941Z,100639.75
2023-03-16T11:15:25.268Z,100631.19
2023-03-16T11:18:31.983Z,100639.28
2023-03-16T11:21:36.264Z,100623.75
2023-03-16T11:24:21.362Z,100593.34
2023-03-16T11:27:18.913Z,100606.34
2023-03-16T11:30:16.068Z,100623.13
2023-03-16T11:33:01.568Z,100607.91
2023-03-16T11:36:04.991Z,100571.75
2023-03-16T11:39:02.745Z,100566.69
2023-03-16T11:41:50.882Z,100552.19
2023-03-16T11:44:38.710Z,100573.91
2023-03-16T11:47:42.214Z,100570.72
2023-03-16T11:50:55.634Z,100572.69
2023-03-16T11:53:40.816Z,100565.94
2023-03-16T11:57:07.477Z,100553.81
2023-03-16T12:00:01.035Z,100558.56
2023-03-16T12:02:53.123Z,100532.88
2023-03-16T12:06:22.124Z,100544.31
2023-03-16T12:09:20.395Z,100535.22
2023-03-16T12:12:27.087Z,100533.06
2023-03-16T12:15:15.227Z,100500.03
2023-03-16T12:18:06.767Z,100540.00
2023-03-16T12:21:11.400Z,100494.16
2023-03-16T12:24:00.558Z,100468.44
2023-03-16T12:26:46.023Z,100488.34
2023-03-16T12:29:50.176Z,100484.19
2023-03-16T12:32:49.931Z,100468.91
2023-03-16T12:35:53.352Z,100459.13
2023-03-16T12:38:54.641Z,100435.66
2023-03-16T12:41:43.047Z,100446.97
2023-03-16T12:44:37.655Z,100465.94
2023-03-16T12:47:36.715Z,100527.59
2023-03-16T12:50:21.973Z,100493.66
2023-03-16T12:53:07.329Z,100480.53
2023-03-16T12:56:00.206Z,100493.56
2023-03-16T12:58:50.756Z,100510.03
2023-03-16T13:01:42.962Z,100484.97
2023-03-16T13:04:35.429Z,100471.41
2023-03-16T13:07:24.361Z,100475.19
2023-03-16T13:10:13.665Z,100501.13
2023-03-16T13:13:11.770Z,100494.25
2023-03-16T13:16:23.875Z,100494.59
2023-03-16T13:19:28.202Z,100494.50
2023-03-16T13:22:22.556Z,100472.91
2023-03-16T13:25:34.619Z,100485.69
2023-03-16T13:28:20.654Z,100470.06
2023-03-16T13:31:36.347Z,100457.16
2023-03-16T13:34:31.749Z,100456.22
2023-03-16T13:37:20.387Z,100455.19
2023-03-16T13:40:19.083Z,100457.84
2023-03-16T13:43:04.511Z,100440.13
2023-03-16T13:45:51.867Z,100432.78
2023-03-16T13:48:37.733Z,100402.94
2023-03-16T13:51:23.214Z,100366.03
2023-03-16T13:54:27.632Z,100392.44
2023-03-16T13:57:21.105Z,100382.84
2023-03-16T14:00:22.345Z,100354.16
2023-03-16T14:03:19.784Z,100330.03
2023-03-16T14:06:06.799Z,100338.13
2023-03-16T14:08:56.452Z,100310.75
2023-03-16T14:11:43.065Z,100312.16
2023-03-16T14:14:31.755Z,100308.44
2023-03-16T14:17:20.502Z,100323.97
2023-03-16T14:20:06.756Z,100302.28
2023-03-16T14:22:53.525Z,100301.41
2023-03-16T14:25:38.593Z,100329.25
2023-03-16T14:28:34.142Z,100294.72
2023-03-16T14:31:20.904Z,100314.75
2023-03-16T14:34:21.273Z,100298.13
2023-03-16T14:37:12.818Z,100330.44
2023-03-16T14:40:02.560Z,100332.03
2023-03-16T14:42:47.927Z,100310.91
2023-03-16T14:45:35.709Z,100329.13
2023-03-16T14:48:21.934Z,100307.91
2023-03-16T14:51:14.254Z,100294.34
2023-03-16T14:54:07.935Z,100273.56
2023-03-16T14:56:58.207Z,100286.31
2023-03-16T14:59:43.771Z,100270.19
2023-03-16T15:02:31.344Z,100255.00
2023-03-16T15:05:24.063Z,100254.66
2023-03-16T15:08:45.987Z,100199.38
2023-03-16T15:11:31.372Z,100212.13
2023-03-16T15:14:16.234Z,100238.03
2023-03-16T15:17:01.281Z,100228.56
2023-03-16T15:19:46.178Z,100225.44
2023-03-16T15:22:33.788Z,100203.44
2023-03-16T15:25:30.292Z,100215.53
2023-03-16T15:28:18.601Z,100209.31
2023-03-16T15:31:04.424Z,100194.25
2023-03-16T15:33:49.415Z,100225.72
2023-03-16T15:36:34.952Z,100218.28
2023-03-16T15:39:23.919Z,100198.41
2023-03-16T15:42:19.306Z,100188.28
2023-03-16T15:45:10.925Z,100183.78
2023-03-16T15:47:56.242Z,100198.22
2023-03-16T15:50:47.001Z,100202.03
2023-03-16T15:53:43.359Z,100181.41
2023-03-16T15:56:33.495Z,100190.06
2023-03-16T15:59:20.115Z,100190.84
2023-03-16T16:02:25.900Z,100161.44
2023-03-16T16:05:11.319Z,100154.88
2023-03-16T16:07:56.590Z,100162.41
2023-03-16T16:10:42.787Z,100177.13
2023-03-16T16:13:43.785Z,100187.56
2023-03-16T16:16:31.592Z,100180.72
2023-03-16T16:19:16.975Z,100173.56
2023-03-16T16:22:01.889Z,100191.78
2023-03-16T16:24:47.013Z,100172.41
2023-03-16T16:27:32.209Z,100175.94
2023-03-16T16:30:27.334Z,100185.66
2023-03-16T16:33:22.079Z,100172.44
2023-03-16T16:36:14.376Z,100188.06
2023-03-16T16:38:59.514Z,100188.03
2023-03-16T16:41:44.750Z,100192.72
2023-03-16T16:44:33.441Z,100203.00
2023-03-16T16:47:20.385Z,100213.34
2023-03-16T16:50:21.052Z,100219.56
2023-03-16T16:53:19.706Z,100205.09
2023-03-16T16:56:05.095Z,100204.22
2023-03-16T16:58:50.137Z,100218.25
2023-03-16T17:01:35.387Z,100213.78
2023-03-16T17:04:22.852Z,100229.38
2023-03-16T17:07:11.623Z,100218.59
2023-03-16T17:09:56.585Z,100225.34
2023-03-16T17:12:42.273Z,100243.13
2023-03-16T17:15:32.609Z,100257.66
2023-03-16T17:18:18.060Z,100254.81
2023-03-16T17:21:03.191Z,100276.16
2023-03-16T17:23:49.229Z,100280.97
2023-03-16T17:26:43.818Z,100298.09
2023-03-16T17:29:31.753Z,100297.97
2023-03-16T17:32:20.344Z,100293.44
2023-03-16T17:35:13.449Z,100323.53
2023-03-16T17:37:58.847Z,100316.41
2023-03-16T17:40:44.398Z,100327.47
2023-03-16T17:43:29.839Z,100350.63
2023-03-16T17:46:18.889Z,100351.50
2023-03-16T17:49:11.727Z,100351.28
2023-03-16T17:51:57.099Z,100346.94
2023-03-16T17:54:42.119Z,100350.16
2023-03-16T17:57:32.016Z,100358.56
2023-03-16T18:00:24.123Z,100356.63
2023-03-16T18:03:14.579Z,100355.91
2023-03-16T18:05:59.769Z,100371.94
2023-03-16T18:08:47.968Z,100374.38
2023-03-16T18:11:37.201Z,100367.88
2023-03-16T18:14:37.220Z,100383.88
2023-03-16T18:17:30.679Z,100390.66
2023-03-16T18:20:28.532Z,100388.72
2023-03-16T18:23:17.001Z,100393.75
2023-03-16T18:26:03.203Z,100393.81
2023-03-16T18:28:48.635Z,100395.59
2023-03-16T18:31:34.287Z,100396.59
2023-03-16T18:34:23.906Z,100398.22
2023-03-16T18:37:26.585Z,100402.44
2023-03-16T18:40:18.397Z,100398.97
2023-03-16T18:43:03.970Z,100401.38
2023-03-16T18:45:49.957Z,100415.00
2023-03-16T18:48:35.764Z,100414.94
2023-03-16T18:51:21.478Z,100425.31
2023-03-16T18:54:26.860Z,100425.41
2023-03-16T18:57:20.821Z,100430.38
2023-03-16T19:00:06.236Z,100432.16
2023-03-16T19:02:54.200Z,100436.47
2023-03-16T19:05:39.515Z,100428.75
2023-03-16T19:08:27.122Z,100433.81
2023-03-16T19:11:12.411Z,100439.81
2023-03-16T19:13:57.596Z,100439.03
2023-03-16T19:16:43.198Z,100446.66
2023-03-16T19:19:28.361Z,100449.09
2023-03-16T19:22:18.481Z,100456.16
2023-03-16T19:25:04.559Z,100446.69
2023-03-16T19:27:50.309Z,100445.88
2023-03-16T19:30:35.864Z,100435.06
2023-03-16T19:33:23.832Z,100446.34
2023-03-16T19:36:16.384Z,100442.94
2023-03-16T19:39:01.955Z,100445.34
2023-03-16T19:41:52.509Z,100441.69
2023-03-16T19:44:37.948Z,100458.97
2023-03-16T19:47:27.986Z,100452.97
2023-03-16T19:50:22.646Z,100445.28
2023-03-16T19:53:16.039Z,100448.41
2023-03-16T19:56:01.576Z,100441.53
2023-03-16T19:58:49.268Z,100452.59
2023-03-16T20:01:34.619Z,100448.41
2023-03-16T20:04:22.913Z,100443.38
2023-03-16T20:07:15.566Z,100442.53
2023-03-16T20:10:00.924Z,100440.09
2023-03-16T20:12:48.658Z,100439.97
2023-03-16T20:15:33.660Z,100435.53
2023-03-16T20:18:18.827Z,100447.38
2023-03-16T20:21:04.452Z,100451.63
2023-03-16T20:23:49.655Z,100449.84
2023-03-16T20:26:34.939Z,100461.66
2023-03-16T20:29:31.762Z,100456.63
2023-03-16T20:32:20.730Z,100459.19
2023-03-16T20:35:14.484Z,100446.16
2023-03-16T20:37:59.357Z,100436.81
2023-03-16T20:40:46.718Z,100430.75
2023-03-16T20:43:32.558Z,100424.84
2023-03-16T20:46:22.614Z,100422.88
2023-03-16T20:49:29.019Z,100422.72
2023-03-16T20:52:19.623Z,100422.66
2023-03-16T20:55:05.168Z,100424.28
2023-03-16T20:57:52.460Z,100421.28
2023-03-16T21:00:39.228Z,100408.75
2023-03-16T21:03:27.324Z,100401.81
2023-03-16T21:06:24.458Z,100409.56
2023-03-16T21:09:09.714Z,100407.84
2023-03-16T21:11:54.903Z,100404.34
2023-03-16T21:14:40.672Z,100389.06
2023-03-16T21:17:31.840Z,100389.00
2023-03-16T21:20:21.010Z,100392.50
2023-03-16T21:23:13.303Z,100384.06
2023-03-16T21:26:02.367Z,100377.06
2023-03-16T21:28:57.306Z,100379.44
2023-03-16T21:31:43.045Z,100377.06
2023-03-16T21:34:33.621Z,100374.41
2023-03-16T21:37:22.441Z,100363.91
2023-03-16T21:40:19.577Z,100373.56
2023-03-16T21:43:05.125Z,100365.63
2023-03-16T21:45:50.907Z,100359.44
2023-03-16T21:48:38.014Z,100354.41
2023-03-16T21:51:27.157Z,100345.84
2023-03-16T21:54:14.189Z,100353.66
2023-03-16T21:56:59.558Z,100352.94
2023-03-16T21:59:44.487Z,100344.38
2023-03-16T22:02:29.842Z,100340.38
2023-03-16T22:05:39.767Z,100335.72
2023-03-16T22:08:31.534Z,100334.94
2023-03-16T22:11:20.755Z,100330.59
2023-03-16T22:14:06.116Z,100321.03
2023-03-16T22:16:51.609Z,100320.09
2023-03-16T22:19:36.827Z,100315.09
2023-03-16T22:22:21.636Z,100322.78
2023-03-16T22:25:19.320Z,100321.00
2023-03-16T22:28:11.577Z,100324.41
2023-03-16T22:30:58.697Z,100336.41
2023-03-16T22:33:44.822Z,100331.31
2023-03-16T22:36:31.139Z,100323.66
2023-03-16T22:39:16.481Z,100320.38
2023-03-16T22:42:02.657Z,100306.44
2023-03-16T22:44:47.893Z,100308.06
2023-03-16T22:47:34.424Z,100302.16
2023-03-16T22:50:21.199Z,100302.94
2023-03-16T22:53:08.638Z,100300.38
2023-03-16T22:55:56.328Z,100289.09
2023-03-16T22:58:45.301Z,100277.13
2023-03-16T23:01:34.120Z,100276.47
2023-03-16T23:04:22.320Z,100263.56
2023-03-16T23:07:12.389Z,100266.19
2023-03-16T23:09:57.496Z,100261.16
2023-03-16T23:12:42.572Z,100261.13
2023-03-16T23:15:29.689Z,100257.66
2023-03-16T23:18:17.015Z,100259.09
2023-03-16T23:21:02.440Z,100263.72
2023-03-16T23:24:02.593Z,100265.41
2023-03-16T23:26:50.000Z,100262.88
2023-03-16T23:29:35.327Z,100261.75
2023-03-16T23:32:20.246Z,100268.53
2023-03-16T23:35:13.406Z,100266.81
2023-03-16T23:37:58.656Z,100269.38
2023-03-16T23:40:43.863Z,100266.63
2023-03-16T23:43:29.091Z,100258.13
2023-03-16T23:46:17.260Z,100250.72
2023-03-16T23:49:04.409Z,100257.78
2023-03-16T23:51:50.471Z,100252.44
2023-03-16T23:54:35.823Z,100261.06
2023-03-16T23:57:20.837Z,100263.72
